Toone, TN (38381)

1:46 AM CDT en Noviembre 01, 2014 (GMT -0500)
McKellar-Sipes Regional | Change Station
CLOSE
Current Station
Aeropuerto
Location: Jackson,
Altura: 433 ft
Estaciones meteorológicas cercanas

Alt 433 ft 35.59 °N, 88.92 °W | Updated 53 minutes ago

Despejado
Despejado
38 ° F
Sensación térmica 30 ° F
N
12
Viento Variable Viento desde NNO

Hoy
Alta -- | Baja -- ° F
--% Posibilidad de precipitaciones
Ayer
Alta -- | Baja -- ° F
Precip. -- pul
7:17 AM 6:00 PM
Gibosa creciente, 63% visible
Presión 30.28 pul
Visibilidad 10.0 Millas
Nubes Despejado
Vientos helados 30 ° F
Punto de rocío 24 ° F
Humedad 57%
Precipitaciones 0.00 pul
Espesor de la nieve No disponible.
UV 0 de una escala de 12
Polen .90 de una escala de 12
Calidad del aire No disponible.
Flu Activity No disponible.
METAR KMKL 010553Z AUTO 34010KT 10SM CLR 03/M04 A3028 RMK AO2 SLP253 T00331044 10067 20033 401280033 58003

More Conditions Fewer Conditions

Presión 30.28 pul
Visibilidad 10.0 Millas
Nubes Despejado
Vientos helados 30 ° F
Punto de rocío 24 ° F
Humedad 57%
Precipitaciones 0.00 pul
Espesor de la nieve No disponible.
UV 0 de una escala de 12
Polen .90 de una escala de 12
Calidad del aire No disponible.
Flu Activity No disponible.
METAR KMKL 010553Z AUTO 34010KT 10SM CLR 03/M04 A3028 RMK AO2 SLP253 T00331044 10067 20033 401280033 58003

More Conditions Fewer Conditions

10-Day Weather Forecast

Almanac

Astronomía

Nov. 01, 2014 Salida Puesta
Hora real
Crepúsculo civil
Crepúsculo náutico
Crepúsculo astronómico
Luna
Horas de luz
Horas de luz
Tomorrow will be .
, % of the Moon is Illuminated

Extremos de hoy

Máximos del estado Bajos del estado

Community

WunderPhotos

Upload Photos

1,766,865 ¡fotos cargadas!

WunderBlogs® & News

Nearby

Calidad del aire

  Calidad del aire Índice AQ Contaminante
Not available.

Grosos de nieve

Estación Profundido Altura

Actividad de terremotos

Ciudad Distance Mag. Tiempo y dato
Magnitud mínima muestra es 2,5.

Temperaturas de aguas costeras

Lugar Temperatura

Estaciones meteorológicas cercanas